Terminal Aerodrome Forecast
Issued by NWS Grand Junction, CO

Home | Current Version | Previous Version | Text Only | Print | Product List | Glossary On
Versions: 1 2 3 4 5 6 7 8 9 10 11 12 13 14 15 16 17 18 19 20 21 22 23 24 25 26 27 28 29 30 31 32 33 34 35
000
FTUS45 KGJT 261224 AAB
TAFGJT
TAF AMD
KGJT 261224Z 2612/2712 35006KT 3SM -SN SCT020 OVC030
      TEMPO 2612/2616 1SM -SN BR BKN020 OVC040
     FM261600 VRB04KT P6SM VCSH BKN040
     FM261800 34006KT P6SM VCSH BKN030
     FM270200 04005KT P6SM BKN080
     FM270800 08005KT P6SM BKN080=

USA.gov is the U.S. government's official web portal to all federal, state and local government web resources and services.